Time;durP1;ratioP1;P1;durP2;ratioP2;P2;SDS_P1;SDS_P2;PMS_P1;PMS_P2;Temp;Humidity;BMP_temperature;BMP_pressure;BME280_temperature;BME280_humidity;BME280_pressure;Samples;Min_cycle;Max_cycle;Signal;HPM_P1;HPM_P2
2022/06/06 00:00:06;;;;;;;14.38;8.10;;;;;;;;;;5022151;28;20053;-77
2022/06/06 00:02:32;;;;;;;14.15;7.88;;;;;;;;;;5020924;28;20103;-77
2022/06/06 00:04:58;;;;;;;13.77;7.15;;;;;;;;;;5026184;28;20067;-77
2022/06/06 00:07:25;;;;;;;12.73;7.20;;;;;;;;;;5025311;28;20129;-77
2022/06/06 00:09:51;;;;;;;14.18;6.93;;;;;;;;;;5036868;28;20499;-77
2022/06/06 00:12:20;;;;;;;14.35;7.10;;;;;;;;;;5020394;28;20076;-77
2022/06/06 00:14:46;;;;;;;9.18;6.65;;;;;;;;;;5028687;28;20049;-79
2022/06/06 00:17:13;;;;;;;9.68;6.85;;;;;;;;;;5026394;28;20103;-77
2022/06/06 00:19:40;;;;;;;12.77;7.25;;;;;;;;;;5019802;28;20504;-78
2022/06/06 00:22:06;;;;;;;12.57;6.93;;;;;;;;;;5026729;28;20050;-77
2022/06/06 00:24:32;;;;;;;12.25;6.82;;;;;;;;;;5026749;28;20033;-78
2022/06/06 00:26:59;;;;;;;12.50;6.65;;;;;;;;;;5021985;28;20485;-78
2022/06/06 00:29:27;;;;;;;11.48;6.15;;;;;;;;;;5018607;28;20037;-77
2022/06/06 00:34:53;;;;;;;13.23;6.15;;;;;;;;;;5023153;28;20037;-77
2022/06/06 00:37:25;;;;;;;11.82;6.32;;;;;;;;;;5024624;28;20052;-77
2022/06/06 00:39:51;;;;;;;11.52;6.28;;;;;;;;;;5026320;28;20128;-77
2022/06/06 00:42:21;;;;;;;8.68;5.95;;;;;;;;;;5028016;28;20049;-78
2022/06/06 00:44:47;;;;;;;11.68;6.13;;;;;;;;;;5031590;28;20056;-77
2022/06/06 00:47:31;;;;;;;11.77;5.90;;;;;;;;;;5028067;28;20041;-77
2022/06/06 00:50:01;;;;;;;8.85;6.20;;;;;;;;;;5028660;28;20411;-77
2022/06/06 00:52:30;;;;;;;8.35;5.93;;;;;;;;;;5029226;28;20045;-78
2022/06/06 00:55:01;;;;;;;9.48;7.28;;;;;;;;;;5028685;28;20041;-78
2022/06/06 00:57:30;;;;;;;10.88;6.40;;;;;;;;;;5023379;28;20136;-78
2022/06/06 00:59:57;;;;;;;11.73;6.72;;;;;;;;;;5028424;28;20046;-78
2022/06/06 01:02:23;;;;;;;12.75;7.20;;;;;;;;;;5025378;28;20417;-78
2022/06/06 01:04:49;;;;;;;12.02;6.18;;;;;;;;;;5027466;28;20044;-78
2022/06/06 01:07:15;;;;;;;9.18;6.38;;;;;;;;;;5030069;28;20049;-78
2022/06/06 01:09:42;;;;;;;14.55;6.80;;;;;;;;;;5027885;28;20138;-78
2022/06/06 01:12:12;;;;;;;9.80;6.32;;;;;;;;;;5026208;28;20075;-78
2022/06/06 01:14:40;;;;;;;9.82;6.05;;;;;;;;;;5023499;28;20049;-77
2022/06/06 01:17:09;;;;;;;9.73;6.43;;;;;;;;;;5029754;28;20049;-78
2022/06/06 01:19:41;;;;;;;10.60;6.63;;;;;;;;;;5026303;28;20046;-78
2022/06/06 01:22:13;;;;;;;12.68;6.80;;;;;;;;;;5025361;28;20060;-78
2022/06/06 01:24:48;;;;;;;11.60;6.55;;;;;;;;;;5026760;28;20045;-78
2022/06/06 01:27:33;;;;;;;13.90;6.88;;;;;;;;;;5028565;28;20091;-78
2022/06/06 01:30:13;;;;;;;17.27;7.47;;;;;;;;;;5024193;28;20351;-79
2022/06/06 01:32:50;;;;;;;10.30;6.53;;;;;;;;;;5020710;28;20049;-79
2022/06/06 01:35:31;;;;;;;11.90;6.60;;;;;;;;;;5029463;28;20060;-79
2022/06/06 01:37:57;;;;;;;13.57;6.97;;;;;;;;;;5024959;28;20049;-79
2022/06/06 01:40:23;;;;;;;10.02;6.50;;;;;;;;;;5029625;28;20594;-79
2022/06/06 01:42:58;;;;;;;11.25;6.07;;;;;;;;;;5028542;28;20115;-79
2022/06/06 01:45:30;;;;;;;10.38;6.63;;;;;;;;;;5026640;28;20077;-78
2022/06/06 01:48:08;;;;;;;7.73;6.30;;;;;;;;;;5027635;28;20132;-78
2022/06/06 01:50:35;;;;;;;7.95;5.95;;;;;;;;;;5022992;28;20359;-79
2022/06/06 01:53:04;;;;;;;9.98;5.45;;;;;;;;;;5024833;28;20046;-78
2022/06/06 01:55:32;;;;;;;9.10;6.13;;;;;;;;;;5027378;28;20045;-78
2022/06/06 01:58:01;;;;;;;8.50;5.82;;;;;;;;;;5024247;28;20136;-78
2022/06/06 02:00:28;;;;;;;9.40;5.38;;;;;;;;;;5039853;28;20493;-79
2022/06/06 02:02:57;;;;;;;10.77;5.90;;;;;;;;;;5029228;28;20125;-78
2022/06/06 02:05:23;;;;;;;9.00;6.57;;;;;;;;;;5020870;28;20053;-79
2022/06/06 02:07:49;;;;;;;11.77;6.95;;;;;;;;;;5026238;28;20489;-79
2022/06/06 02:10:16;;;;;;;11.48;6.55;;;;;;;;;;5022591;28;20163;-79
2022/06/06 02:12:43;;;;;;;13.32;6.70;;;;;;;;;;5027434;28;20041;-79
2022/06/06 02:15:10;;;;;;;6.28;5.57;;;;;;;;;;5026202;28;20041;-78
2022/06/06 02:17:37;;;;;;;8.88;5.28;;;;;;;;;;5026580;28;20099;-78
2022/06/06 02:20:04;;;;;;;13.07;5.70;;;;;;;;;;5025798;28;20080;-78
2022/06/06 02:22:30;;;;;;;9.15;5.60;;;;;;;;;;5026815;28;20124;-78
2022/06/06 02:24:57;;;;;;;10.73;5.15;;;;;;;;;;5028012;28;20041;-79
2022/06/06 02:27:23;;;;;;;6.13;4.60;;;;;;;;;;5028211;28;20509;-78
2022/06/06 02:29:49;;;;;;;5.95;4.22;;;;;;;;;;5024190;28;20052;-79
2022/06/06 02:32:15;;;;;;;5.90;4.32;;;;;;;;;;5024814;28;20107;-78
2022/06/06 02:34:41;;;;;;;4.60;4.20;;;;;;;;;;5028399;28;20041;-79
2022/06/06 02:37:07;;;;;;;6.28;4.40;;;;;;;;;;5020310;28;20416;-79
2022/06/06 02:39:33;;;;;;;7.80;5.40;;;;;;;;;;5021838;28;20072;-78
2022/06/06 02:41:59;;;;;;;8.20;5.03;;;;;;;;;;5027526;28;20497;-80
2022/06/06 02:44:26;;;;;;;9.23;4.97;;;;;;;;;;5027006;28;20045;-79
2022/06/06 02:46:53;;;;;;;8.20;5.30;;;;;;;;;;5028957;28;20129;-79
2022/06/06 02:49:19;;;;;;;8.30;5.47;;;;;;;;;;5026317;28;20084;-79
2022/06/06 02:51:45;;;;;;;7.97;5.80;;;;;;;;;;5027871;28;20094;-79
2022/06/06 02:54:11;;;;;;;7.63;5.47;;;;;;;;;;5022401;28;20045;-79
2022/06/06 02:56:38;;;;;;;8.35;5.88;;;;;;;;;;5026111;28;20037;-79
2022/06/06 02:59:06;;;;;;;7.60;6.30;;;;;;;;;;5025646;28;20088;-79
2022/06/06 03:01:34;;;;;;;9.88;6.45;;;;;;;;;;5023207;28;20048;-79
2022/06/06 03:04:00;;;;;;;10.95;7.32;;;;;;;;;;5026001;28;20115;-79
2022/06/06 03:06:26;;;;;;;8.70;6.97;;;;;;;;;;5026069;28;20107;-79
2022/06/06 03:09:09;;;;;;;11.15;8.55;;;;;;;;;;5028731;28;20481;-79
2022/06/06 03:11:41;;;;;;;11.43;8.48;;;;;;;;;;5025442;28;20517;-79
2022/06/06 03:14:23;;;;;;;14.93;8.00;;;;;;;;;;5026753;28;20064;-79
2022/06/06 03:23:13;;;;;;;10.40;7.70;;;;;;;;;;5004276;28;20092;-79
2022/06/06 03:26:02;;;;;;;11.02;7.68;;;;;;;;;;5020102;28;20167;-79
2022/06/06 03:28:38;;;;;;;12.55;7.75;;;;;;;;;;5021498;28;20053;-79
2022/06/06 03:31:13;;;;;;;12.63;8.05;;;;;;;;;;5023530;28;20095;-79
2022/06/06 03:33:48;;;;;;;10.55;7.50;;;;;;;;;;5025162;28;20492;-79
2022/06/06 03:36:17;;;;;;;13.82;7.68;;;;;;;;;;5022635;28;20144;-79
2022/06/06 03:38:49;;;;;;;12.55;8.43;;;;;;;;;;5023757;28;20440;-79
2022/06/06 03:41:18;;;;;;;12.02;8.82;;;;;;;;;;5025717;28;20071;-79
2022/06/06 03:43:53;;;;;;;12.23;8.50;;;;;;;;;;5025805;28;20045;-79
2022/06/06 03:46:34;;;;;;;12.07;8.18;;;;;;;;;;5022979;28;20050;-79
2022/06/06 03:49:09;;;;;;;11.70;7.57;;;;;;;;;;5023820;28;20485;-79
2022/06/06 03:51:40;;;;;;;13.27;7.60;;;;;;;;;;5025790;28;20042;-79
2022/06/06 03:54:06;;;;;;;8.45;7.05;;;;;;;;;;5024995;28;20056;-79
2022/06/06 03:56:35;;;;;;;10.32;7.22;;;;;;;;;;5020701;28;20064;-79
2022/06/06 03:59:01;;;;;;;9.63;7.18;;;;;;;;;;5027412;28;20064;-79
2022/06/06 04:01:30;;;;;;;10.60;7.00;;;;;;;;;;5023361;28;20722;-78
2022/06/06 04:03:58;;;;;;;9.05;6.90;;;;;;;;;;5020110;28;20049;-78
2022/06/06 04:06:28;;;;;;;11.55;7.20;;;;;;;;;;5020993;28;20425;-79
2022/06/06 04:08:54;;;;;;;10.02;6.35;;;;;;;;;;5027412;28;20053;-79
2022/06/06 04:11:29;;;;;;;12.30;7.13;;;;;;;;;;5021353;28;20048;-78
2022/06/06 04:13:55;;;;;;;9.88;6.78;;;;;;;;;;5026130;28;20554;-79
2022/06/06 04:16:24;;;;;;;8.95;6.82;;;;;;;;;;5024010;28;20130;-79
2022/06/06 04:18:58;;;;;;;11.75;7.35;;;;;;;;;;5026018;28;20034;-79
2022/06/06 04:21:33;;;;;;;9.98;7.22;;;;;;;;;;5025051;28;20597;-79
2022/06/06 04:24:08;;;;;;;8.77;6.38;;;;;;;;;;5024427;28;20033;-79
2022/06/06 04:26:40;;;;;;;6.93;5.70;;;;;;;;;;5025871;28;20064;-78
2022/06/06 04:29:09;;;;;;;8.85;5.50;;;;;;;;;;5023033;28;20716;-78
2022/06/06 04:31:43;;;;;;;7.65;5.20;;;;;;;;;;5023695;28;20136;-78
2022/06/06 04:34:28;;;;;;;6.85;4.95;;;;;;;;;;5024463;28;20064;-78
2022/06/06 04:37:00;;;;;;;5.88;5.00;;;;;;;;;;5027111;28;20129;-78
2022/06/06 04:39:26;;;;;;;7.40;5.85;;;;;;;;;;5020774;28;20080;-78
2022/06/06 04:41:52;;;;;;;6.70;5.40;;;;;;;;;;5027857;28;20076;-79
2022/06/06 04:44:24;;;;;;;8.05;5.85;;;;;;;;;;5024835;28;20485;-79
2022/06/06 04:46:52;;;;;;;5.30;3.85;;;;;;;;;;5025257;28;20053;-79
2022/06/06 04:49:22;;;;;;;6.35;2.60;;;;;;;;;;5023598;28;20045;-79
2022/06/06 04:51:50;;;;;;;5.57;2.90;;;;;;;;;;5021468;28;20137;-79
2022/06/06 04:54:17;;;;;;;5.22;2.75;;;;;;;;;;5023736;28;20049;-79
2022/06/06 04:56:45;;;;;;;5.50;3.17;;;;;;;;;;5025832;28;20048;-79
2022/06/06 04:59:12;;;;;;;5.88;3.50;;;;;;;;;;5022581;28;20136;-79
2022/06/06 05:01:39;;;;;;;6.57;4.30;;;;;;;;;;5016176;28;20141;-79
2022/06/06 05:04:05;;;;;;;8.88;4.05;;;;;;;;;;5024279;28;20049;-79
2022/06/06 05:06:31;;;;;;;6.82;4.20;;;;;;;;;;5020783;28;20037;-79
2022/06/06 05:08:57;;;;;;;5.97;3.40;;;;;;;;;;5023772;28;20048;-78
2022/06/06 05:11:26;;;;;;;4.55;3.05;;;;;;;;;;5023214;28;20057;-79
2022/06/06 05:13:56;;;;;;;3.00;2.60;;;;;;;;;;5024942;28;20042;-79
2022/06/06 05:16:29;;;;;;;3.97;2.92;;;;;;;;;;5023356;28;20465;-79
2022/06/06 05:18:59;;;;;;;4.57;2.42;;;;;;;;;;5024602;28;20052;-79
2022/06/06 05:21:37;;;;;;;5.53;2.28;;;;;;;;;;5019530;28;20045;-79
2022/06/06 05:24:22;;;;;;;6.18;2.60;;;;;;;;;;5026187;28;20073;-79
2022/06/06 05:26:48;;;;;;;11.60;4.93;;;;;;;;;;5043580;28;20041;-79
2022/06/06 05:29:33;;;;;;;6.90;3.90;;;;;;;;;;5022105;28;20563;-79
2022/06/06 05:32:08;;;;;;;4.82;3.03;;;;;;;;;;5026015;28;20038;-79
2022/06/06 05:34:40;;;;;;;7.25;3.78;;;;;;;;;;5024755;28;20346;-79
2022/06/06 05:37:24;;;;;;;7.78;3.80;;;;;;;;;;5027220;28;20147;-79
2022/06/06 05:40:03;;;;;;;9.90;4.38;;;;;;;;;;5027962;28;20049;-80
2022/06/06 05:42:35;;;;;;;8.38;4.38;;;;;;;;;;5028825;28;20458;-79
2022/06/06 05:45:07;;;;;;;8.77;3.67;;;;;;;;;;5025017;28;20071;-79
2022/06/06 05:47:52;;;;;;;9.20;4.30;;;;;;;;;;5027079;28;20053;-79
2022/06/06 05:50:27;;;;;;;9.48;4.18;;;;;;;;;;5026326;28;20065;-79
2022/06/06 05:52:53;;;;;;;9.48;4.20;;;;;;;;;;5026016;28;20072;-79
2022/06/06 05:55:37;;;;;;;14.18;5.03;;;;;;;;;;5026427;28;20451;-79
2022/06/06 05:58:15;;;;;;;13.35;4.97;;;;;;;;;;5022028;28;20118;-79
2022/06/06 06:00:55;;;;;;;16.08;5.50;;;;;;;;;;5027619;28;20373;-79
2022/06/06 06:03:33;;;;;;;13.48;5.60;;;;;;;;;;5025329;28;20567;-79
2022/06/06 06:06:19;;;;;;;13.63;5.65;;;;;;;;;;5027367;28;20046;-79
2022/06/06 06:08:47;;;;;;;13.13;4.85;;;;;;;;;;5030734;28;20120;-80
2022/06/06 06:11:13;;;;;;;14.05;5.00;;;;;;;;;;5029767;28;20091;-81
2022/06/06 06:13:46;;;;;;;11.57;4.85;;;;;;;;;;5028967;28;20389;-80
2022/06/06 06:16:15;;;;;;;10.65;4.40;;;;;;;;;;5025733;28;20080;-80
2022/06/06 06:18:47;;;;;;;14.05;4.82;;;;;;;;;;5026595;28;20088;-78
2022/06/06 06:21:16;;;;;;;13.80;4.33;;;;;;;;;;5026052;28;20050;-79
2022/06/06 06:23:47;;;;;;;11.80;4.55;;;;;;;;;;5028533;28;20304;-79
2022/06/06 06:26:13;;;;;;;13.38;4.70;;;;;;;;;;5024456;28;20053;-80
2022/06/06 06:28:41;;;;;;;7.57;4.25;;;;;;;;;;5024896;28;20041;-80
2022/06/06 06:31:31;;;;;;;11.32;4.07;;;;;;;;;;5026244;28;20037;-79
2022/06/06 06:34:01;;;;;;;10.27;3.90;;;;;;;;;;5018844;28;20497;-79
2022/06/06 06:36:36;;;;;;;10.98;4.30;;;;;;;;;;5024990;28;20045;-80
2022/06/06 06:39:09;;;;;;;7.47;3.78;;;;;;;;;;5019268;28;20120;-79
2022/06/06 06:41:44;;;;;;;7.13;3.45;;;;;;;;;;5027037;28;20497;-80
2022/06/06 06:44:11;;;;;;;7.32;4.07;;;;;;;;;;5025832;28;20045;-79
2022/06/06 06:46:42;;;;;;;13.98;4.00;;;;;;;;;;5025933;28;20145;-80
2022/06/06 06:49:19;;;;;;;8.93;3.55;;;;;;;;;;5027574;28;20049;-79
2022/06/06 06:51:56;;;;;;;10.50;4.13;;;;;;;;;;5023529;28;20050;-79
2022/06/06 06:54:41;;;;;;;9.05;3.47;;;;;;;;;;5021756;28;20049;-79
2022/06/06 06:57:43;;;;;;;10.48;3.53;;;;;;;;;;5026321;28;20054;-78
2022/06/06 07:00:15;;;;;;;12.20;4.28;;;;;;;;;;5026233;28;20493;-79
2022/06/06 07:08:34;;;;;;;7.40;3.72;;;;;;;;;;5021089;28;20042;-79
2022/06/06 07:11:06;;;;;;;10.95;5.28;;;;;;;;;;5025591;28;20060;-79
2022/06/06 07:13:51;;;;;;;9.88;3.85;;;;;;;;;;5026315;28;20454;-79
2022/06/06 07:16:20;;;;;;;7.28;3.50;;;;;;;;;;5022799;28;20048;-78
2022/06/06 07:18:50;;;;;;;7.25;3.45;;;;;;;;;;5026435;28;20107;-79
2022/06/06 07:21:17;;;;;;;5.65;2.80;;;;;;;;;;5022180;28;20053;-81
2022/06/06 07:23:48;;;;;;;6.88;3.13;;;;;;;;;;5019266;28;20037;-79
2022/06/06 07:26:14;;;;;;;3.95;2.88;;;;;;;;;;5014775;28;20106;-79
2022/06/06 07:28:40;;;;;;;7.13;2.90;;;;;;;;;;5023750;28;20393;-79
2022/06/06 07:31:07;;;;;;;7.80;3.78;;;;;;;;;;5019059;28;20045;-79
2022/06/06 07:34:00;;;;;;;7.55;3.42;;;;;;;;;;5019575;28;20466;-79
2022/06/06 07:36:36;;;;;;;9.95;3.10;;;;;;;;;;5026433;28;20056;-79
2022/06/06 07:39:18;;;;;;;5.07;3.17;;;;;;;;;;5021803;28;20488;-79
2022/06/06 07:41:56;;;;;;;7.97;3.45;;;;;;;;;;5023720;28;20049;-79
2022/06/06 07:44:22;;;;;;;5.20;2.92;;;;;;;;;;5024156;28;20052;-79
2022/06/06 07:47:05;;;;;;;5.90;3.10;;;;;;;;;;5022678;28;20041;-79
2022/06/06 07:49:41;;;;;;;7.10;3.42;;;;;;;;;;5022292;28;20490;-79
2022/06/06 07:52:39;;;;;;;5.25;3.17;;;;;;;;;;5004466;28;20049;-80
2022/06/06 07:55:18;;;;;;;7.20;3.17;;;;;;;;;;4967284;28;20065;-79
2022/06/06 07:58:03;;;;;;;5.93;3.05;;;;;;;;;;4959119;28;20184;-79
2022/06/06 08:00:29;;;;;;;5.97;3.22;;;;;;;;;;5021429;28;20485;-80
2022/06/06 08:02:58;;;;;;;6.78;3.28;;;;;;;;;;5017547;28;20069;-80
2022/06/06 08:05:59;;;;;;;8.48;3.50;;;;;;;;;;5025679;28;20046;-80
2022/06/06 08:08:31;;;;;;;7.00;3.58;;;;;;;;;;4951309;28;20049;-81
2022/06/06 08:11:14;;;;;;;6.40;3.60;;;;;;;;;;5014582;28;20050;-81
2022/06/06 08:13:47;;;;;;;7.00;3.30;;;;;;;;;;5026575;28;20064;-81
2022/06/06 08:16:18;;;;;;;6.53;3.40;;;;;;;;;;5016667;28;20038;-78
2022/06/06 08:19:00;;;;;;;5.75;3.25;;;;;;;;;;5021754;28;20049;-79
2022/06/06 08:21:33;;;;;;;10.30;5.75;;;;;;;;;;5021678;28;20046;-81
2022/06/06 08:24:02;;;;;;;8.13;3.60;;;;;;;;;;5026395;28;20053;-83
2022/06/06 08:26:28;;;;;;;4.43;3.60;;;;;;;;;;5044388;22;20703;-81
2022/06/06 08:28:55;;;;;;;6.10;3.50;;;;;;;;;;5010672;28;20097;-80
2022/06/06 08:31:21;;;;;;;6.40;3.72;;;;;;;;;;5006760;28;20109;-80
2022/06/06 08:33:48;;;;;;;7.63;4.15;;;;;;;;;;5007202;28;20125;-80
2022/06/06 08:36:23;;;;;;;7.97;4.13;;;;;;;;;;5003660;28;20053;-82
2022/06/06 08:39:05;;;;;;;8.52;4.25;;;;;;;;;;5003060;28;20098;-81
2022/06/06 08:41:50;;;;;;;5.72;4.75;;;;;;;;;;5004795;28;20498;-80
2022/06/06 08:44:36;;;;;;;9.18;4.72;;;;;;;;;;5024630;28;20080;-80
2022/06/06 08:47:09;;;;;;;7.93;4.43;;;;;;;;;;4993901;28;20129;-82
2022/06/06 08:52:35;;;;;;;10.38;5.15;;;;;;;;;;5000211;28;20045;-79
2022/06/06 08:55:19;;;;;;;9.32;5.50;;;;;;;;;;5016942;28;20050;-81
2022/06/06 08:57:49;;;;;;;6.35;4.40;;;;;;;;;;4999901;28;20041;-79
2022/06/06 09:00:31;;;;;;;9.07;4.30;;;;;;;;;;5008118;28;20087;-76
2022/06/06 09:03:15;;;;;;;7.97;4.57;;;;;;;;;;5022890;28;20122;-77
2022/06/06 09:05:59;;;;;;;6.85;4.60;;;;;;;;;;5006215;28;20073;-76
2022/06/06 09:08:25;;;;;;;8.52;5.18;;;;;;;;;;5012545;28;20068;-76
2022/06/06 09:10:51;;;;;;;12.43;4.75;;;;;;;;;;5032590;28;20041;-78
2022/06/06 09:13:24;;;;;;;8.88;4.82;;;;;;;;;;5001623;28;20045;-76
2022/06/06 09:16:05;;;;;;;7.85;4.43;;;;;;;;;;5023321;28;20473;-77
2022/06/06 09:18:34;;;;;;;11.10;4.53;;;;;;;;;;5002127;28;20175;-79
2022/06/06 09:21:11;;;;;;;12.02;4.82;;;;;;;;;;5006018;28;20090;-75
2022/06/06 09:24:00;;;;;;;16.20;5.88;;;;;;;;;;5009990;28;20507;-76
2022/06/06 09:26:29;;;;;;;12.68;5.35;;;;;;;;;;5010079;28;20149;-75
2022/06/06 09:28:58;;;;;;;14.88;5.93;;;;;;;;;;5009315;28;20136;-75
2022/06/06 09:31:27;;;;;;;14.18;5.38;;;;;;;;;;5011008;28;20056;-77
2022/06/06 09:34:14;;;;;;;12.90;5.10;;;;;;;;;;5011209;28;20512;-78
2022/06/06 09:36:54;;;;;;;20.98;6.68;;;;;;;;;;5002986;28;20136;-80
2022/06/06 09:39:34;;;;;;;11.95;4.60;;;;;;;;;;5013594;28;20223;-75
2022/06/06 09:42:05;;;;;;;17.65;5.15;;;;;;;;;;5006438;28;20065;-75
2022/06/06 09:44:50;;;;;;;19.90;5.53;;;;;;;;;;5002329;28;20485;-75
2022/06/06 09:47:32;;;;;;;16.67;6.03;;;;;;;;;;5008109;28;20042;-79
2022/06/06 09:50:05;;;;;;;30.08;11.48;;;;;;;;;;5013434;28;20049;-79
2022/06/06 09:52:37;;;;;;;30.20;8.07;;;;;;;;;;5025091;28;20034;-84
2022/06/06 10:01:12;;;;;;;21.50;6.55;;;;;;;;;;5014877;28;20112;-83
2022/06/06 10:03:56;;;;;;;11.57;5.28;;;;;;;;;;4999476;28;20405;-81
2022/06/06 10:06:41;;;;;;;14.70;5.45;;;;;;;;;;5023038;28;20075;-87
2022/06/06 10:09:12;;;;;;;13.95;5.88;;;;;;;;;;5007391;28;20056;-80
2022/06/06 10:11:42;;;;;;;12.75;5.03;;;;;;;;;;5001930;28;20072;-79
2022/06/06 10:14:26;;;;;;;14.40;4.53;;;;;;;;;;5001731;28;20054;-79
2022/06/06 10:17:02;;;;;;;20.60;5.25;;;;;;;;;;5006475;28;20049;-80
2022/06/06 10:19:40;;;;;;;16.23;5.63;;;;;;;;;;5021767;28;20060;-79
2022/06/06 10:22:24;;;;;;;17.92;5.63;;;;;;;;;;5023760;28;20045;-79
2022/06/06 10:25:06;;;;;;;13.95;6.07;;;;;;;;;;5001217;28;20042;-79
2022/06/06 10:27:44;;;;;;;13.02;5.75;;;;;;;;;;4980339;28;20054;-79
2022/06/06 10:30:10;;;;;;;14.82;6.13;;;;;;;;;;4979558;28;20042;-79
2022/06/06 10:32:55;;;;;;;13.57;5.80;;;;;;;;;;4981646;28;20379;-80
2022/06/06 10:35:26;;;;;;;7.85;4.93;;;;;;;;;;4980864;28;20042;-80
2022/06/06 10:37:52;;;;;;;6.05;4.30;;;;;;;;;;4981149;28;20410;-81
2022/06/06 10:40:27;;;;;;;8.90;4.75;;;;;;;;;;4976876;28;20054;-80
2022/06/06 10:43:00;;;;;;;7.82;4.65;;;;;;;;;;4987032;28;20120;-80
2022/06/06 10:45:37;;;;;;;10.15;5.22;;;;;;;;;;4977005;28;20038;-80
2022/06/06 10:48:15;;;;;;;7.50;5.38;;;;;;;;;;4984461;28;20505;-80
2022/06/06 10:53:58;;;;;;;10.20;5.72;;;;;;;;;;4976611;28;20113;-80
2022/06/06 10:56:44;;;;;;;7.32;4.78;;;;;;;;;;4979062;28;20070;-79
2022/06/06 10:59:20;;;;;;;8.27;5.10;;;;;;;;;;4980329;28;20132;-79
2022/06/06 11:01:52;;;;;;;8.88;5.05;;;;;;;;;;4975504;28;20138;-79
2022/06/06 11:04:24;;;;;;;7.45;4.72;;;;;;;;;;4988996;28;20058;-80
2022/06/06 11:07:00;;;;;;;8.40;4.78;;;;;;;;;;4985859;28;20034;-79
2022/06/06 11:09:45;;;;;;;7.45;4.70;;;;;;;;;;4979392;28;20046;-80
2022/06/06 11:12:20;;;;;;;8.38;4.68;;;;;;;;;;4980242;28;20054;-80
2022/06/06 11:14:46;;;;;;;9.13;4.82;;;;;;;;;;4984699;28;20050;-80
2022/06/06 11:17:12;;;;;;;7.85;4.97;;;;;;;;;;4974199;28;20376;-81
2022/06/06 11:19:57;;;;;;;8.15;4.68;;;;;;;;;;4981196;28;20053;-79
2022/06/06 11:22:27;;;;;;;7.13;4.07;;;;;;;;;;4983464;28;20114;-79
2022/06/06 11:24:56;;;;;;;5.30;3.65;;;;;;;;;;4986555;28;20159;-79
2022/06/06 11:27:31;;;;;;;6.72;4.10;;;;;;;;;;5004781;28;20057;-79
2022/06/06 11:30:11;;;;;;;5.10;3.58;;;;;;;;;;5000257;28;20123;-79
2022/06/06 11:32:56;;;;;;;4.88;2.97;;;;;;;;;;4997964;28;20137;-80
2022/06/06 11:35:22;;;;;;;4.75;3.42;;;;;;;;;;4995535;28;20054;-79
2022/06/06 11:37:57;;;;;;;9.02;3.70;;;;;;;;;;4996118;28;20099;-80
2022/06/06 11:40:35;;;;;;;4.03;2.72;;;;;;;;;;5003788;28;20076;-80
2022/06/06 11:43:04;;;;;;;6.43;2.75;;;;;;;;;;4997160;28;20125;-80
2022/06/06 11:45:39;;;;;;;4.00;2.60;;;;;;;;;;4999115;28;20080;-79
2022/06/06 11:48:26;;;;;;;4.15;2.55;;;;;;;;;;4998306;28;20125;-79
2022/06/06 11:50:59;;;;;;;3.55;2.45;;;;;;;;;;5000043;28;20049;-80
2022/06/06 11:53:31;;;;;;;4.40;2.10;;;;;;;;;;4997701;28;20108;-79
2022/06/06 11:56:11;;;;;;;5.05;2.10;;;;;;;;;;5001509;28;20038;-79
2022/06/06 11:58:40;;;;;;;4.03;2.17;;;;;;;;;;4999397;28;20670;-78
2022/06/06 12:01:25;;;;;;;2.15;1.90;;;;;;;;;;4998410;28;20044;-78
2022/06/06 12:04:06;;;;;;;2.22;1.90;;;;;;;;;;5008308;28;20046;-79
2022/06/06 12:07:05;;;;;;;4.57;2.35;;;;;;;;;;4992126;28;20057;-79
2022/06/06 12:09:47;;;;;;;4.07;2.00;;;;;;;;;;5000266;28;20046;-80
2022/06/06 12:12:32;;;;;;;3.47;1.83;;;;;;;;;;5012038;28;20045;-80
2022/06/06 12:15:10;;;;;;;3.50;2.03;;;;;;;;;;5010658;28;20058;-80
2022/06/06 12:17:55;;;;;;;2.70;1.88;;;;;;;;;;5002054;28;20044;-79
2022/06/06 12:20:21;;;;;;;3.35;2.00;;;;;;;;;;4995836;28;20045;-79
2022/06/06 12:22:50;;;;;;;2.67;1.38;;;;;;;;;;5008813;28;20046;-79
2022/06/06 12:25:35;;;;;;;4.82;1.50;;;;;;;;;;5010983;28;20046;-79
2022/06/06 12:28:19;;;;;;;5.38;1.95;;;;;;;;;;5031171;28;20048;-79
2022/06/06 12:30:54;;;;;;;5.22;1.98;;;;;;;;;;5002037;28;20627;-79
2022/06/06 12:33:43;;;;;;;5.40;2.00;;;;;;;;;;5016897;28;20046;-79
2022/06/06 12:36:14;;;;;;;6.05;3.38;;;;;;;;;;5003884;28;20152;-79
2022/06/06 12:39:05;;;;;;;10.75;2.20;;;;;;;;;;5004034;28;20041;-80
2022/06/06 12:41:51;;;;;;;6.32;2.45;;;;;;;;;;5020643;28;20037;-79
2022/06/06 12:44:17;;;;;;;4.43;1.80;;;;;;;;;;5023707;28;21628;-78
2022/06/06 12:46:55;;;;;;;3.92;1.70;;;;;;;;;;5021950;28;20049;-78
2022/06/06 12:49:21;;;;;;;6.47;1.75;;;;;;;;;;5001844;28;20102;-79
2022/06/06 12:51:59;;;;;;;8.18;2.25;;;;;;;;;;5022775;28;20057;-78
2022/06/06 12:55:26;;;;;;;6.68;2.10;;;;;;;;;;5004162;28;20061;-78
2022/06/06 12:57:39;;;;;;;4.40;1.70;;;;;;;;;;5012455;28;20371;-78
2022/06/06 13:00:06;;;;;;;4.82;2.08;;;;;;;;;;5016764;28;20057;-79
2022/06/06 13:02:52;;;;;;;3.55;1.80;;;;;;;;;;5016501;28;20065;-78
2022/06/06 13:05:30;;;;;;;4.25;2.17;;;;;;;;;;5012564;28;20107;-78
2022/06/06 13:08:03;;;;;;;5.38;1.70;;;;;;;;;;5025234;28;20183;-79
2022/06/06 13:10:29;;;;;;;4.13;1.90;;;;;;;;;;5020548;28;20486;-78
2022/06/06 13:13:13;;;;;;;4.70;2.50;;;;;;;;;;5029465;28;20053;-79
2022/06/06 13:15:51;;;;;;;6.65;4.15;;;;;;;;;;5023164;28;20520;-78
2022/06/06 13:18:23;;;;;;;3.88;2.35;;;;;;;;;;5023296;28;20056;-79
2022/06/06 13:20:56;;;;;;;4.13;2.20;;;;;;;;;;5014570;28;20434;-78
2022/06/06 13:23:31;;;;;;;5.13;2.00;;;;;;;;;;5001818;28;20046;-79
2022/06/06 13:26:02;;;;;;;1.92;1.80;;;;;;;;;;5007334;28;20046;-80
2022/06/06 13:28:31;;;;;;;3.78;2.00;;;;;;;;;;5024899;28;20049;-79
2022/06/06 13:31:06;;;;;;;1.60;1.50;;;;;;;;;;5025700;28;20045;-79
2022/06/06 13:33:51;;;;;;;1.73;1.63;;;;;;;;;;5012058;28;20045;-79
2022/06/06 13:36:23;;;;;;;1.80;1.70;;;;;;;;;;5008014;28;20134;-76
2022/06/06 13:39:01;;;;;;;2.22;1.67;;;;;;;;;;5005919;28;20072;-79
2022/06/06 13:42:00;;;;;;;3.40;1.80;;;;;;;;;;5009736;28;20608;-78
2022/06/06 13:44:35;;;;;;;2.85;1.88;;;;;;;;;;4971504;28;20184;-77
2022/06/06 13:47:13;;;;;;;2.60;1.90;;;;;;;;;;5026373;28;20414;-78
2022/06/06 13:49:46;;;;;;;2.55;1.73;;;;;;;;;;5021346;28;20045;-79
2022/06/06 13:52:27;;;;;;;2.28;2.08;;;;;;;;;;5000639;28;20056;-81
2022/06/06 13:54:53;;;;;;;2.83;1.90;;;;;;;;;;5007212;28;20366;-79
2022/06/06 13:57:22;;;;;;;3.10;2.30;;;;;;;;;;5010818;28;20045;-78
2022/06/06 13:59:51;;;;;;;2.70;2.33;;;;;;;;;;5015459;28;20055;-78
2022/06/06 14:02:26;;;;;;;3.75;2.35;;;;;;;;;;5011245;28;20063;-79
2022/06/06 14:05:05;;;;;;;2.92;2.00;;;;;;;;;;5006964;28;20045;-78
2022/06/06 14:07:44;;;;;;;4.82;2.25;;;;;;;;;;5010875;28;20041;-78
2022/06/06 14:10:16;;;;;;;4.60;2.47;;;;;;;;;;5021941;28;20045;-78
2022/06/06 14:12:48;;;;;;;6.35;2.85;;;;;;;;;;5025437;28;20041;-79
2022/06/06 14:15:16;;;;;;;3.70;2.40;;;;;;;;;;5007617;28;20045;-79
2022/06/06 14:17:47;;;;;;;3.97;2.40;;;;;;;;;;5025486;28;20046;-79
2022/06/06 14:20:18;;;;;;;7.07;3.10;;;;;;;;;;5021121;28;20587;-79
2022/06/06 14:22:45;;;;;;;4.65;2.70;;;;;;;;;;5024899;28;20056;-77
2022/06/06 14:25:12;;;;;;;3.20;2.50;;;;;;;;;;5004772;28;20041;-78
2022/06/06 14:27:38;;;;;;;3.20;2.40;;;;;;;;;;5009370;28;20053;-77
2022/06/06 14:30:06;;;;;;;4.93;2.60;;;;;;;;;;5003021;28;20496;-79
2022/06/06 14:32:55;;;;;;;6.95;2.97;;;;;;;;;;5033930;28;20124;-79
2022/06/06 14:35:33;;;;;;;3.60;2.78;;;;;;;;;;5005869;28;20045;-78
2022/06/06 14:38:15;;;;;;;3.83;2.75;;;;;;;;;;5014513;28;20037;-81
2022/06/06 14:41:01;;;;;;;3.38;2.50;;;;;;;;;;5012588;28;20135;-81
2022/06/06 14:43:32;;;;;;;4.63;2.88;;;;;;;;;;5024939;28;20057;-77
2022/06/06 14:45:59;;;;;;;4.45;2.70;;;;;;;;;;5002491;28;20041;-77
2022/06/06 14:48:55;;;;;;;4.55;2.92;;;;;;;;;;5029835;28;20055;-77
2022/06/06 14:51:25;;;;;;;3.92;2.92;;;;;;;;;;4986241;28;20046;-76
2022/06/06 14:53:52;;;;;;;5.95;3.30;;;;;;;;;;5030879;28;20500;-77
2022/06/06 14:56:18;;;;;;;7.32;3.70;;;;;;;;;;4997505;28;20099;-77
2022/06/06 14:58:53;;;;;;;3.30;3.00;;;;;;;;;;5004039;28;20069;-76
2022/06/06 15:01:20;;;;;;;4.88;3.10;;;;;;;;;;5009214;28;20053;-76
2022/06/06 15:04:10;;;;;;;5.65;3.60;;;;;;;;;;5005504;28;20513;-77
2022/06/06 15:06:47;;;;;;;5.95;3.33;;;;;;;;;;4981857;28;20085;-77
2022/06/06 15:09:18;;;;;;;6.10;3.60;;;;;;;;;;5007395;28;20150;-76
2022/06/06 15:11:44;;;;;;;9.60;4.45;;;;;;;;;;5003048;28;20053;-80
2022/06/06 15:14:12;;;;;;;6.43;3.78;;;;;;;;;;5024968;28;20053;-79
2022/06/06 15:16:39;;;;;;;6.22;3.80;;;;;;;;;;5011232;28;20052;-79
2022/06/06 15:19:06;;;;;;;6.40;3.58;;;;;;;;;;5025592;28;20053;-79
2022/06/06 15:21:33;;;;;;;6.85;3.83;;;;;;;;;;5015376;28;20037;-79
2022/06/06 15:24:02;;;;;;;6.75;3.90;;;;;;;;;;5014035;28;20037;-77
2022/06/06 15:26:28;;;;;;;9.85;4.47;;;;;;;;;;5013070;28;20057;-80
2022/06/06 15:28:58;;;;;;;8.73;4.80;;;;;;;;;;5028364;28;20133;-79
2022/06/06 15:31:24;;;;;;;7.22;4.60;;;;;;;;;;5006504;28;20101;-79
2022/06/06 15:34:07;;;;;;;11.30;4.78;;;;;;;;;;5021227;28;20064;-78
2022/06/06 15:36:51;;;;;;;6.45;4.60;;;;;;;;;;5021893;28;20469;-77
2022/06/06 15:39:30;;;;;;;12.18;4.43;;;;;;;;;;5026451;28;20062;-78
2022/06/06 15:42:15;;;;;;;11.20;4.65;;;;;;;;;;5030106;28;20052;-77